Impacts METAR Board
IDs:

KBHM - Birmingham Intl, AL, US

Updated at: 2300 UTC 02 Oct 2022
Potential Impact None Slight Moderate High
Time 02/11Z 02/12Z 02/13Z 02/14Z 02/15Z 02/16Z 02/17Z 02/18Z 02/19Z 02/20Z 02/21Z 02/22Z 02/23Z
Temp50 48 53 62 66 69 73 77 78 80 81 80 77
Dewpt46 46 48 48 47 50 51 50 50 49 48 49 48
Altim30.06 30.08 30.09 30.11 30.11 30.11 30.10 30.08 30.06 30.05 30.04 30.05 30.06
VIS10 10 10 10 10 10 10 10 10 10 10 10 10
CIG-- -- -- -- -- -- -- -- -- -- -- -- --
CoverCLRCLRCLRCLRCLRCLRCLRCLRCLRCLRCLRCLRCLR
FltCatVFRVFRVFRVFRVFRVFRVFRVFRVFRVFRVFRVFRVFR
WX--------------------------
WDir000350340350360330360340340350360
WSpd0 0 0 5 9 8 9 13 11 16 11 9 11
WGst-- -- -- -- -- 18 -- 18 -- 20 20 -- --
Raw hourly METARs
KBHM 021053Z 00000KT 10SM CLR 10/08 A3006 RMK AO2 SLP176 T01000078
KBHM 021153Z 00000KT 10SM CLR 09/08 A3008 RMK AO2 SLP181 T00890078 10128 20089 52013
KBHM 021253Z 00000KT 10SM CLR 12/09 A3009 RMK AO2 SLP185 T01170089
KBHM 021353Z 35005KT 10SM CLR 17/09 A3011 RMK AO2 SLP191 T01670089
KBHM 021453Z 34009KT 10SM CLR 19/08 A3011 RMK AO2 SLP191 T01890083 51010
KBHM 021553Z 35008G18KT 10SM CLR 21/10 A3011 RMK AO2 SLP190 T02060100
KBHM 021653Z 36009KT 10SM CLR 23/11 A3010 RMK AO2 SLP186 T02280106
KBHM 021753Z 33013G18KT 10SM CLR 25/10 A3008 RMK AO2 SLP181 T02500100 10250 20089 58009
KBHM 021853Z 36011KT 10SM CLR 26/10 A3006 RMK AO2 SLP174 T02560100
KBHM 021953Z 34016G20KT 10SM CLR 27/09 A3005 RMK AO2 SLP169 T02670094
KBHM 022053Z AUTO 34011G20KT 10SM CLR 27/09 A3004 RMK AO2 SLP168 T02720089 56013
KBHM 022153Z AUTO 35009KT 10SM CLR 27/09 A3005 RMK AO2 SLP169 T02670094
KBHM 022253Z AUTO 36011KT 10SM CLR 25/09 A3006 RMK AO2 SLP173 T02500089



Page loaded:  23:20 UTC  |   04:20 PM Pacific  |   05:20 PM Mountain  |   06:20 PM Central  |   07:20 PM Eastern

 

ADVISORIES

FORECASTS

FORECASTS

OBSERVATIONS

USER TOOLS

ABOUT US